Time,TemperatureF,DewpointF,PressureIn,WindDirection,WindDirectionDegrees,WindSpeedMPH,WindSpeedGustMPH,Humidity,HourlyPrecipIn,Conditions,Clouds,dailyrainin,SoftwareType,DateUTC
2013-03-17 00:00:00,33.3,29.3,29.98,NNW,338,0.0,1.8,85,0.00,,,0.06,WUHU216HW,2013-03-17 04:00:00,
2013-03-17 00:05:00,33.1,29.1,29.98,NNW,338,0.4,1.1,85,0.00,,,0.00,WUHU216HW,2013-03-17 04:05:00,
2013-03-17 00:10:00,33.1,29.1,29.99,WNW,293,0.4,1.8,85,0.00,,,0.00,WUHU216HW,2013-03-17 04:10:00,
2013-03-17 00:15:00,32.9,28.9,29.99,NW,315,0.2,1.8,85,0.00,,,0.00,WUHU216HW,2013-03-17 04:15:00,
2013-03-17 00:20:00,32.8,28.7,29.99,NW,315,0.0,2.0,85,0.00,,,0.00,WUHU216HW,2013-03-17 04:20:00,
2013-03-17 00:25:00,32.8,28.7,29.99,NW,315,0.2,2.0,85,0.00,,,0.00,WUHU216HW,2013-03-17 04:25:00,
2013-03-17 00:30:00,32.6,28.5,29.99,NNW,338,0.7,1.1,85,0.00,,,0.00,WUHU216HW,2013-03-17 04:30:00,
2013-03-17 00:35:00,32.6,28.5,29.99,WNW,293,0.4,1.6,85,0.00,,,0.00,WUHU216HW,2013-03-17 04:35:00,
2013-03-17 00:40:00,32.6,28.5,30.00,NNW,338,1.1,1.6,85,0.00,,,0.00,WUHU216HW,2013-03-17 04:40:00,
2013-03-17 00:45:00,32.6,28.5,30.00,WNW,293,0.2,1.1,85,0.00,,,0.00,WUHU216HW,2013-03-17 04:45:00,
2013-03-17 00:50:00,32.4,28.5,30.00,NNW,338,0.2,0.4,85,0.00,,,0.00,WUHU216HW,2013-03-17 04:50:00,
2013-03-17 00:55:00,32.2,28.3,30.00,NW,315,0.7,1.1,85,0.00,,,0.00,WUHU216HW,2013-03-17 04:55:00,
2013-03-17 01:00:00,32.0,28.1,30.00,NW,315,0.0,1.1,85,0.00,,,0.00,WUHU216HW,2013-03-17 05:00:00,
2013-03-17 01:05:00,32.0,28.1,30.00,NNW,338,0.4,1.1,85,0.00,,,0.00,WUHU216HW,2013-03-17 05:05:00,
2013-03-17 01:10:00,32.0,28.1,30.00,NNW,338,0.7,0.7,85,0.00,,,0.00,WUHU216HW,2013-03-17 05:10:00,
2013-03-17 01:15:00,32.0,28.1,30.00,ENE,68,0.0,0.7,85,0.00,,,0.00,WUHU216HW,2013-03-17 05:15:00,
2013-03-17 01:20:00,32.0,28.1,30.01,ENE,68,0.0,0.2,85,0.00,,,0.00,WUHU216HW,2013-03-17 05:20:00,
2013-03-17 01:25:00,32.0,28.1,30.00,NW,315,1.1,1.8,85,0.00,,,0.00,WUHU216HW,2013-03-17 05:25:00,
2013-03-17 01:30:00,32.0,28.4,30.01,WNW,293,2.7,2.7,86,0.00,,,0.00,WUHU216HW,2013-03-17 05:30:00,
2013-03-17 01:35:00,32.0,28.1,30.01,West,270,0.9,2.7,85,0.00,,,0.00,WUHU216HW,2013-03-17 05:35:00,
2013-03-17 01:40:00,32.0,28.1,30.01,NNW,338,1.1,2.5,85,0.00,,,0.00,WUHU216HW,2013-03-17 05:40:00,
2013-03-17 01:45:00,32.0,28.1,30.02,WNW,293,0.4,1.1,85,0.00,,,0.00,WUHU216HW,2013-03-17 05:45:00,
2013-03-17 01:50:00,31.9,27.9,30.02,NW,315,0.4,3.8,85,0.00,,,0.00,WUHU216HW,2013-03-17 05:50:00,
2013-03-17 01:55:00,31.7,27.7,30.02,WSW,248,1.3,3.8,85,0.00,,,0.00,WUHU216HW,2013-03-17 05:55:00,
2013-03-17 02:00:00,31.7,27.5,30.02,NNW,338,1.3,3.1,84,0.00,,,0.00,WUHU216HW,2013-03-17 06:00:00,
2013-03-17 02:05:00,31.5,27.3,30.02,North,0,0.0,3.1,84,0.00,,,0.00,WUHU216HW,2013-03-17 06:05:00,
2013-03-17 02:10:00,31.5,27.3,30.02,SE,135,0.0,1.8,84,0.00,,,0.00,WUHU216HW,2013-03-17 06:10:00,
2013-03-17 02:15:00,31.3,27.1,30.02,NNW,338,2.2,2.2,84,0.00,,,0.00,WUHU216HW,2013-03-17 06:15:00,
2013-03-17 02:20:00,31.3,27.1,30.02,NW,315,0.2,2.2,84,0.00,,,0.00,WUHU216HW,2013-03-17 06:20:00,
2013-03-17 02:25:00,31.3,27.1,30.02,NE,45,0.7,1.1,84,0.00,,,0.00,WUHU216HW,2013-03-17 06:25:00,
2013-03-17 02:30:00,31.3,27.1,30.02,SE,135,0.4,2.2,84,0.00,,,0.00,WUHU216HW,2013-03-17 06:30:00,
2013-03-17 02:35:00,31.1,26.9,30.02,NW,315,0.0,2.2,84,0.00,,,0.00,WUHU216HW,2013-03-17 06:35:00,
2013-03-17 02:40:00,31.1,26.9,30.03,WNW,293,0.0,1.8,84,0.00,,,0.00,WUHU216HW,2013-03-17 06:40:00,
2013-03-17 02:45:00,31.1,26.9,30.03,WNW,293,0.4,1.3,84,0.00,,,0.00,WUHU216HW,2013-03-17 06:45:00,
2013-03-17 02:50:00,31.1,26.9,30.03,NW,315,0.0,0.7,84,0.00,,,0.00,WUHU216HW,2013-03-17 06:50:00,
2013-03-17 02:55:00,31.1,26.9,30.04,West,270,2.5,2.5,84,0.00,,,0.00,WUHU216HW,2013-03-17 06:55:00,
2013-03-17 03:00:00,31.1,26.9,30.04,NW,315,2.5,2.7,84,0.00,,,0.00,WUHU216HW,2013-03-17 07:00:00,
2013-03-17 03:05:00,31.1,26.9,30.04,West,270,0.0,2.7,84,0.00,,,0.00,WUHU216HW,2013-03-17 07:05:00,
2013-03-17 03:10:00,31.0,26.7,30.04,NE,45,1.1,1.8,84,0.00,,,0.00,WUHU216HW,2013-03-17 07:10:00,
2013-03-17 03:15:00,31.0,26.5,30.04,NNW,338,0.4,1.3,83,0.00,,,0.00,WUHU216HW,2013-03-17 07:15:00,
2013-03-17 03:20:00,31.0,26.7,30.04,NNW,338,0.0,1.1,84,0.00,,,0.00,WUHU216HW,2013-03-17 07:20:00,
2013-03-17 03:25:00,31.0,26.7,30.03,NNW,338,0.0,1.1,84,0.00,,,0.00,WUHU216HW,2013-03-17 07:25:00,
2013-03-17 03:30:00,31.0,26.7,30.03,WSW,248,1.1,1.1,84,0.00,,,0.00,WUHU216HW,2013-03-17 07:30:00,
2013-03-17 03:35:00,31.0,26.7,30.03,North,0,0.0,1.1,84,0.00,,,0.00,WUHU216HW,2013-03-17 07:35:00,
2013-03-17 03:40:00,31.0,26.7,30.03,NNE,23,0.0,1.3,84,0.00,,,0.00,WUHU216HW,2013-03-17 07:40:00,
2013-03-17 03:45:00,31.0,26.5,30.04,North,0,0.4,1.3,83,0.00,,,0.00,WUHU216HW,2013-03-17 07:45:00,
2013-03-17 03:50:00,31.0,26.5,30.04,NNW,338,0.0,0.4,83,0.00,,,0.00,WUHU216HW,2013-03-17 07:50:00,
2013-03-17 03:55:00,31.0,26.5,30.04,NE,45,0.0,0.4,83,0.00,,,0.00,WUHU216HW,2013-03-17 07:55:00,
2013-03-17 04:00:00,30.8,26.6,30.04,NNE,23,0.0,0.9,84,0.00,,,0.00,WUHU216HW,2013-03-17 08:00:00,
2013-03-17 04:05:00,30.8,26.3,30.04,North,0,0.0,0.9,83,0.00,,,0.00,WUHU216HW,2013-03-17 08:05:00,
2013-03-17 04:10:00,30.8,26.6,30.05,WNW,293,0.7,0.7,84,0.00,,,0.00,WUHU216HW,2013-03-17 08:10:00,
2013-03-17 04:15:00,30.6,26.1,30.05,WSW,248,0.4,0.7,83,0.00,,,0.00,WUHU216HW,2013-03-17 08:15:00,
2013-03-17 04:20:00,30.6,26.1,30.05,NW,315,1.6,2.2,83,0.00,,,0.00,WUHU216HW,2013-03-17 08:20:00,
2013-03-17 04:25:00,30.4,25.6,30.05,North,0,1.6,2.2,82,0.00,,,0.00,WUHU216HW,2013-03-17 08:25:00,
2013-03-17 04:30:00,30.2,25.4,30.05,North,0,3.6,3.6,82,0.00,,,0.00,WUHU216HW,2013-03-17 08:30:00,
2013-03-17 04:35:00,30.1,24.9,30.05,NW,315,0.9,3.6,81,0.00,,,0.00,WUHU216HW,2013-03-17 08:35:00,
2013-03-17 04:40:00,29.9,24.8,30.05,NW,315,0.2,2.0,81,0.00,,,0.00,WUHU216HW,2013-03-17 08:40:00,
2013-03-17 04:45:00,29.9,24.8,30.06,WSW,248,0.7,1.6,81,0.00,,,0.00,WUHU216HW,2013-03-17 08:45:00,
2013-03-17 04:50:00,29.9,24.8,30.06,ENE,68,0.4,1.6,81,0.00,,,0.00,WUHU216HW,2013-03-17 08:50:00,
2013-03-17 04:55:00,29.7,23.9,30.06,NW,315,1.1,1.1,79,0.00,,,0.00,WUHU216HW,2013-03-17 08:55:00,
2013-03-17 05:00:00,29.5,23.8,30.06,NE,45,0.2,1.3,79,0.00,,,0.00,WUHU216HW,2013-03-17 09:00:00,
2013-03-17 05:05:00,29.3,23.7,30.06,North,0,0.2,1.3,79,0.00,,,0.00,WUHU216HW,2013-03-17 09:05:00,
2013-03-17 05:10:00,29.3,23.7,30.07,NE,45,0.0,1.3,79,0.00,,,0.00,WUHU216HW,2013-03-17 09:10:00,
2013-03-17 05:15:00,29.3,23.7,30.06,NE,45,0.0,1.1,79,0.00,,,0.00,WUHU216HW,2013-03-17 09:15:00,
2013-03-17 05:20:00,29.2,23.5,30.07,NE,45,0.0,1.3,79,0.00,,,0.00,WUHU216HW,2013-03-17 09:20:00,
2013-03-17 05:25:00,29.2,23.5,30.07,NNW,338,0.0,1.3,79,0.00,,,0.00,WUHU216HW,2013-03-17 09:25:00,
2013-03-17 05:30:00,29.3,23.7,30.07,North,0,0.4,0.4,79,0.00,,,0.00,WUHU216HW,2013-03-17 09:30:00,
2013-03-17 05:35:00,29.2,23.5,30.07,NE,45,0.4,0.4,79,0.00,,,0.00,WUHU216HW,2013-03-17 09:35:00,
2013-03-17 05:40:00,29.2,23.5,30.07,East,90,0.0,1.1,79,0.00,,,0.00,WUHU216HW,2013-03-17 09:40:00,
2013-03-17 05:45:00,29.2,23.5,30.08,NNE,23,0.0,1.1,79,0.00,,,0.00,WUHU216HW,2013-03-17 09:45:00,
2013-03-17 05:50:00,29.2,23.5,30.08,NNW,338,0.0,0.4,79,0.00,,,0.00,WUHU216HW,2013-03-17 09:50:00,
2013-03-17 05:55:00,29.2,23.5,30.08,SE,135,0.2,0.4,79,0.00,,,0.00,WUHU216HW,2013-03-17 09:55:00,
2013-03-17 06:00:00,29.2,23.5,30.08,ENE,68,0.0,0.4,79,0.00,,,0.00,WUHU216HW,2013-03-17 10:00:00,
2013-03-17 06:05:00,29.2,23.5,30.09,NNW,338,0.0,1.8,79,0.00,,,0.00,WUHU216HW,2013-03-17 10:05:00,
2013-03-17 06:10:00,29.2,23.1,30.08,ESE,113,0.4,1.8,78,0.00,,,0.00,WUHU216HW,2013-03-17 10:10:00,
2013-03-17 06:15:00,29.2,22.9,30.08,ESE,113,0.4,2.0,77,0.00,,,0.00,WUHU216HW,2013-03-17 10:15:00,
2013-03-17 06:20:00,29.0,22.7,30.08,East,90,0.2,2.0,77,0.00,,,0.00,WUHU216HW,2013-03-17 10:20:00,
2013-03-17 06:25:00,29.0,22.7,30.09,NE,45,0.2,1.8,77,0.00,,,0.00,WUHU216HW,2013-03-17 10:25:00,
2013-03-17 06:30:00,29.0,22.7,30.09,East,90,0.2,1.8,77,0.00,,,0.00,WUHU216HW,2013-03-17 10:30:00,
2013-03-17 06:35:00,29.2,22.9,30.09,NNE,23,0.0,1.8,77,0.00,,,0.00,WUHU216HW,2013-03-17 10:35:00,
2013-03-17 06:40:00,29.2,22.9,30.09,NNE,23,0.0,0.9,77,0.00,,,0.00,WUHU216HW,2013-03-17 10:40:00,
2013-03-17 06:45:00,29.2,22.9,30.09,ESE,113,0.4,0.7,77,0.00,,,0.00,WUHU216HW,2013-03-17 10:45:00,
2013-03-17 06:50:00,29.2,22.9,30.10,ESE,113,0.0,0.7,77,0.00,,,0.00,WUHU216HW,2013-03-17 10:50:00,
2013-03-17 06:55:00,29.2,22.9,30.10,ESE,113,0.0,0.2,77,0.00,,,0.00,WUHU216HW,2013-03-17 10:55:00,
2013-03-17 07:00:00,29.3,23.3,30.11,ESE,113,0.0,0.4,78,0.00,,,0.00,WUHU216HW,2013-03-17 11:00:00,
2013-03-17 07:05:00,29.3,23.3,30.11,ESE,113,0.4,0.4,78,0.00,,,0.00,WUHU216HW,2013-03-17 11:05:00,
2013-03-17 07:10:00,29.5,23.5,30.11,ESE,113,0.0,0.4,78,0.00,,,0.00,WUHU216HW,2013-03-17 11:10:00,
2013-03-17 07:15:00,29.5,23.5,30.12,ESE,113,0.4,0.4,78,0.00,,,0.00,WUHU216HW,2013-03-17 11:15:00,
2013-03-17 07:20:00,29.5,23.5,30.12,ESE,113,0.0,0.4,78,0.00,,,0.00,WUHU216HW,2013-03-17 11:20:00,
2013-03-17 07:25:00,29.5,23.5,30.12,ESE,113,0.4,0.4,78,0.00,,,0.00,WUHU216HW,2013-03-17 11:25:00,
2013-03-17 07:30:00,29.5,23.5,30.12,ESE,113,0.0,0.4,78,0.00,,,0.00,WUHU216HW,2013-03-17 11:30:00,
2013-03-17 07:35:00,29.5,23.5,30.13,ESE,113,0.2,0.4,78,0.00,,,0.00,WUHU216HW,2013-03-17 11:35:00,
2013-03-17 07:40:00,29.7,23.7,30.13,ESE,113,0.0,0.4,78,0.00,,,0.00,WUHU216HW,2013-03-17 11:40:00,
2013-03-17 07:45:00,29.5,23.5,30.12,ESE,113,0.0,0.0,78,0.00,,,0.00,WUHU216HW,2013-03-17 11:45:00,
2013-03-17 07:50:00,29.7,23.7,30.13,ESE,113,0.0,0.2,78,0.00,,,0.00,WUHU216HW,2013-03-17 11:50:00,
2013-03-17 07:55:00,29.7,23.7,30.13,ESE,113,0.0,0.2,78,0.00,,,0.00,WUHU216HW,2013-03-17 11:55:00,
2013-03-17 08:00:00,29.7,23.7,30.13,ESE,113,0.0,0.7,78,0.00,,,0.00,WUHU216HW,2013-03-17 12:00:00,
2013-03-17 08:05:00,29.9,23.9,30.13,ESE,113,0.7,0.7,78,0.00,,,0.00,WUHU216HW,2013-03-17 12:05:00,
2013-03-17 08:10:00,29.9,23.5,30.14,ESE,113,0.2,0.7,77,0.00,,,0.00,WUHU216HW,2013-03-17 12:10:00,
2013-03-17 08:15:00,29.9,23.5,30.14,ESE,113,0.4,0.4,77,0.00,,,0.00,WUHU216HW,2013-03-17 12:15:00,
2013-03-17 08:20:00,29.9,23.9,30.15,ESE,113,0.0,0.4,78,0.00,,,0.00,WUHU216HW,2013-03-17 12:20:00,
2013-03-17 08:25:00,29.9,23.9,30.15,ESE,113,0.0,0.7,78,0.00,,,0.00,WUHU216HW,2013-03-17 12:25:00,
2013-03-17 08:30:00,30.1,24.0,30.15,ESE,113,0.2,1.1,78,0.00,,,0.00,WUHU216HW,2013-03-17 12:30:00,
2013-03-17 08:35:00,30.1,24.0,30.15,SE,135,0.2,1.1,78,0.00,,,0.00,WUHU216HW,2013-03-17 12:35:00,
2013-03-17 08:40:00,30.2,24.2,30.15,ESE,113,0.0,0.7,78,0.00,,,0.00,WUHU216HW,2013-03-17 12:40:00,
2013-03-17 08:45:00,30.2,24.2,30.15,SE,135,0.4,0.4,78,0.00,,,0.00,WUHU216HW,2013-03-17 12:45:00,
2013-03-17 08:50:00,30.4,24.4,30.15,SE,135,0.0,0.4,78,0.00,,,0.00,WUHU216HW,2013-03-17 12:50:00,
2013-03-17 08:55:00,30.6,24.6,30.16,SE,135,0.2,0.4,78,0.00,,,0.00,WUHU216HW,2013-03-17 12:55:00,
2013-03-17 09:00:00,30.6,24.6,30.16,South,180,0.0,0.4,78,0.00,,,0.00,WUHU216HW,2013-03-17 13:00:00,
2013-03-17 09:05:00,30.8,24.8,30.16,South,180,0.0,0.4,78,0.00,,,0.00,WUHU216HW,2013-03-17 13:05:00,
2013-03-17 09:10:00,31.0,24.9,30.17,SSE,158,0.2,0.7,78,0.00,,,0.00,WUHU216HW,2013-03-17 13:10:00,
2013-03-17 09:15:00,31.1,25.1,30.16,South,180,0.0,0.7,78,0.00,,,0.00,WUHU216HW,2013-03-17 13:15:00,
2013-03-17 09:20:00,31.3,24.9,30.16,SE,135,0.2,0.4,77,0.00,,,0.00,WUHU216HW,2013-03-17 13:20:00,
2013-03-17 09:25:00,31.3,24.9,30.17,SE,135,0.2,0.9,77,0.00,,,0.00,WUHU216HW,2013-03-17 13:25:00,
2013-03-17 09:30:00,31.5,24.9,30.17,SE,135,0.0,0.9,76,0.00,,,0.00,WUHU216HW,2013-03-17 13:30:00,
2013-03-17 09:35:00,31.7,25.0,30.17,SE,135,0.0,0.7,76,0.00,,,0.00,WUHU216HW,2013-03-17 13:35:00,
2013-03-17 09:40:00,31.9,25.2,30.17,SE,135,0.4,0.7,76,0.00,,,0.00,WUHU216HW,2013-03-17 13:40:00,
2013-03-17 09:45:00,31.9,25.2,30.17,ESE,113,0.4,0.4,76,0.00,,,0.00,WUHU216HW,2013-03-17 13:45:00,
2013-03-17 09:50:00,32.0,25.4,30.17,ESE,113,0.2,0.4,76,0.00,,,0.00,WUHU216HW,2013-03-17 13:50:00,
2013-03-17 09:55:00,32.2,25.5,30.17,ESE,113,0.2,0.2,76,0.00,,,0.00,WUHU216HW,2013-03-17 13:55:00,
2013-03-17 10:00:00,32.2,25.5,30.17,ESE,113,0.2,0.2,76,0.00,,,0.00,WUHU216HW,2013-03-17 14:00:00,
2013-03-17 10:05:00,32.2,24.6,30.17,ESE,113,0.7,0.7,73,0.00,,,0.00,WUHU216HW,2013-03-17 14:05:00,
2013-03-17 10:10:00,32.0,23.4,30.18,ESE,113,0.4,0.9,70,0.00,,,0.00,WUHU216HW,2013-03-17 14:10:00,
2013-03-17 10:15:00,31.7,23.4,30.18,NNW,338,0.0,1.6,71,0.00,,,0.00,WUHU216HW,2013-03-17 14:15:00,
2013-03-17 10:20:00,31.9,23.6,30.18,SE,135,0.4,1.6,71,0.00,,,0.00,WUHU216HW,2013-03-17 14:20:00,
2013-03-17 10:25:00,31.9,23.2,30.18,ESE,113,0.0,0.4,70,0.00,,,0.00,WUHU216HW,2013-03-17 14:25:00,
2013-03-17 10:30:00,32.0,23.8,30.19,ENE,68,0.4,0.4,71,0.00,,,0.00,WUHU216HW,2013-03-17 14:30:00,
2013-03-17 10:35:00,32.2,23.9,30.19,NNW,338,0.4,0.7,71,0.00,,,0.00,WUHU216HW,2013-03-17 14:35:00,
2013-03-17 10:40:00,32.2,23.6,30.19,East,90,0.0,0.7,70,0.00,,,0.00,WUHU216HW,2013-03-17 14:40:00,
2013-03-17 10:45:00,32.4,24.0,30.19,ESE,113,0.9,1.1,71,0.00,,,0.00,WUHU216HW,2013-03-17 14:45:00,
2013-03-17 10:50:00,32.8,24.4,30.19,ESE,113,1.1,2.0,71,0.00,,,0.00,WUHU216HW,2013-03-17 14:50:00,
2013-03-17 10:55:00,33.1,24.4,30.19,ESE,113,0.2,2.0,70,0.00,,,0.00,WUHU216HW,2013-03-17 14:55:00,
2013-03-17 11:00:00,33.5,24.3,30.20,ESE,113,0.4,1.1,69,0.00,,,0.00,WUHU216HW,2013-03-17 15:00:00,
2013-03-17 11:05:00,32.8,23.0,30.20,East,90,1.6,1.6,67,0.00,,,0.00,WUHU216HW,2013-03-17 15:05:00,
2013-03-17 11:10:00,32.8,23.3,30.20,SE,135,0.9,1.6,68,0.00,,,0.00,WUHU216HW,2013-03-17 15:10:00,
2013-03-17 11:15:00,32.6,23.5,30.20,East,90,0.4,1.3,69,0.00,,,0.00,WUHU216HW,2013-03-17 15:15:00,
2013-03-17 11:20:00,32.8,23.7,30.20,East,90,0.4,1.3,69,0.00,,,0.00,WUHU216HW,2013-03-17 15:20:00,
2013-03-17 11:25:00,32.8,23.0,30.20,ESE,113,0.9,1.8,67,0.00,,,0.00,WUHU216HW,2013-03-17 15:25:00,
2013-03-17 11:30:00,32.8,23.0,30.19,NE,45,0.2,1.8,67,0.00,,,0.00,WUHU216HW,2013-03-17 15:30:00,
2013-03-17 11:35:00,32.9,23.9,30.19,NE,45,0.0,0.9,69,0.00,,,0.00,WUHU216HW,2013-03-17 15:35:00,
2013-03-17 11:40:00,33.3,23.1,30.19,NE,45,0.2,0.9,66,0.00,,,0.00,WUHU216HW,2013-03-17 15:40:00,
2013-03-17 11:45:00,33.7,24.1,30.19,ESE,113,0.4,0.9,68,0.00,,,0.00,WUHU216HW,2013-03-17 15:45:00,
2013-03-17 11:50:00,34.6,25.4,30.19,SE,135,0.2,0.9,69,0.00,,,0.00,WUHU216HW,2013-03-17 15:50:00,
2013-03-17 11:55:00,35.3,25.7,30.19,SSE,158,0.2,0.9,68,0.00,,,0.00,WUHU216HW,2013-03-17 15:55:00,
2013-03-17 12:00:00,35.6,25.7,30.19,West,270,0.4,0.7,67,0.00,,,0.00,WUHU216HW,2013-03-17 16:00:00,
2013-03-17 12:05:00,35.5,24.5,30.19,West,270,1.1,1.1,64,0.00,,,0.00,WUHU216HW,2013-03-17 16:05:00,
2013-03-17 12:10:00,35.3,22.9,30.19,ESE,113,1.1,1.1,60,0.00,,,0.00,WUHU216HW,2013-03-17 16:10:00,
2013-03-17 12:15:00,35.3,23.2,30.19,ENE,68,1.1,1.6,61,0.00,,,0.00,WUHU216HW,2013-03-17 16:15:00,
2013-03-17 12:20:00,34.7,22.7,30.19,ESE,113,1.1,2.0,61,0.00,,,0.00,WUHU216HW,2013-03-17 16:20:00,
2013-03-17 12:25:00,34.6,22.1,30.19,NNE,23,0.4,2.0,60,0.00,,,0.00,WUHU216HW,2013-03-17 16:25:00,
2013-03-17 12:30:00,34.2,22.5,30.19,ESE,113,1.8,1.8,62,0.00,,,0.00,WUHU216HW,2013-03-17 16:30:00,
2013-03-17 12:35:00,34.7,23.0,30.19,WNW,293,1.1,1.8,62,0.00,,,0.00,WUHU216HW,2013-03-17 16:35:00,
2013-03-17 12:40:00,35.6,23.2,30.19,East,90,0.4,1.8,60,0.00,,,0.00,WUHU216HW,2013-03-17 16:40:00,
2013-03-17 12:45:00,35.6,23.2,30.19,NNW,338,0.7,1.1,60,0.00,,,0.00,WUHU216HW,2013-03-17 16:45:00,
2013-03-17 12:50:00,35.5,23.4,30.18,ESE,113,0.2,1.1,61,0.00,,,0.00,WUHU216HW,2013-03-17 16:50:00,
2013-03-17 12:55:00,35.5,23.0,30.18,NW,315,0.4,2.0,60,0.00,,,0.00,WUHU216HW,2013-03-17 16:55:00,
2013-03-17 13:00:00,35.1,22.7,30.18,ESE,113,0.9,2.0,60,0.00,,,0.00,WUHU216HW,2013-03-17 17:00:00,
2013-03-17 13:05:00,34.9,22.9,30.19,ESE,113,1.8,2.0,61,0.00,,,0.00,WUHU216HW,2013-03-17 17:05:00,
2013-03-17 13:10:00,35.1,22.7,30.18,NW,315,0.4,2.0,60,0.00,,,0.00,WUHU216HW,2013-03-17 17:10:00,
2013-03-17 13:15:00,34.7,22.3,30.18,ESE,113,2.5,2.5,60,0.00,,,0.00,WUHU216HW,2013-03-17 17:15:00,
2013-03-17 13:20:00,34.7,23.0,30.18,ESE,113,1.8,2.5,62,0.00,,,0.00,WUHU216HW,2013-03-17 17:20:00,
2013-03-17 13:25:00,35.5,23.8,30.19,WNW,293,1.6,2.2,62,0.00,,,0.00,WUHU216HW,2013-03-17 17:25:00,
2013-03-17 13:30:00,35.5,23.0,30.18,East,90,0.9,2.2,60,0.00,,,0.00,WUHU216HW,2013-03-17 17:30:00,
2013-03-17 13:35:00,35.6,23.9,30.18,ESE,113,0.2,1.1,62,0.00,,,0.00,WUHU216HW,2013-03-17 17:35:00,
2013-03-17 13:40:00,36.5,24.8,30.18,NE,45,0.4,0.9,62,0.00,,,0.00,WUHU216HW,2013-03-17 17:40:00,
2013-03-17 13:45:00,37.8,26.3,30.18,SSE,158,0.4,1.1,63,0.00,,,0.00,WUHU216HW,2013-03-17 17:45:00,
2013-03-17 13:50:00,38.3,26.8,30.18,SSE,158,0.0,1.1,63,0.00,,,0.00,WUHU216HW,2013-03-17 17:50:00,
2013-03-17 13:55:00,37.6,22.9,30.18,ESE,113,0.2,1.6,55,0.00,,,0.00,WUHU216HW,2013-03-17 17:55:00,
2013-03-17 14:00:00,36.7,23.8,30.18,SW,225,0.4,2.5,59,0.00,,,0.00,WUHU216HW,2013-03-17 18:00:00,
2013-03-17 14:05:00,36.5,22.8,30.18,East,90,0.7,2.5,57,0.00,,,0.00,WUHU216HW,2013-03-17 18:05:00,
2013-03-17 14:10:00,37.1,24.1,30.18,East,90,0.4,1.8,59,0.00,,,0.00,WUHU216HW,2013-03-17 18:10:00,
2013-03-17 14:15:00,38.2,25.5,30.18,ESE,113,0.0,1.8,60,0.00,,,0.00,WUHU216HW,2013-03-17 18:15:00,
2013-03-17 14:20:00,37.8,22.1,30.18,ENE,68,0.7,2.2,53,0.00,,,0.00,WUHU216HW,2013-03-17 18:20:00,
2013-03-17 14:25:00,37.6,23.7,30.17,WNW,293,0.2,2.2,57,0.00,,,0.00,WUHU216HW,2013-03-17 18:25:00,
2013-03-17 14:30:00,37.3,23.0,30.17,ENE,68,0.0,1.8,56,0.00,,,0.00,WUHU216HW,2013-03-17 18:30:00,
2013-03-17 14:35:00,36.9,22.6,30.18,NNE,23,0.4,1.8,56,0.00,,,0.00,WUHU216HW,2013-03-17 18:35:00,
2013-03-17 14:40:00,37.1,23.7,30.17,ENE,68,1.3,2.0,58,0.00,,,0.00,WUHU216HW,2013-03-17 18:40:00,
2013-03-17 14:45:00,37.4,23.1,30.17,ESE,113,0.4,4.0,56,0.00,,,0.00,WUHU216HW,2013-03-17 18:45:00,
2013-03-17 14:50:00,37.3,23.0,30.17,NW,315,0.4,4.0,56,0.00,,,0.00,WUHU216HW,2013-03-17 18:50:00,
2013-03-17 14:55:00,37.4,22.7,30.17,NNW,338,0.4,3.1,55,0.00,,,0.00,WUHU216HW,2013-03-17 18:55:00,
2013-03-17 15:00:00,36.9,22.6,30.17,ESE,113,1.3,2.9,56,0.00,,,0.00,WUHU216HW,2013-03-17 19:00:00,
2013-03-17 15:05:00,37.1,23.7,30.17,ESE,113,1.8,2.9,58,0.00,,,0.00,WUHU216HW,2013-03-17 19:05:00,
2013-03-17 15:10:00,37.6,24.1,30.17,ESE,113,2.7,2.7,58,0.00,,,0.00,WUHU216HW,2013-03-17 19:10:00,
2013-03-17 15:15:00,38.2,24.2,30.17,ESE,113,0.4,4.9,57,0.00,,,0.00,WUHU216HW,2013-03-17 19:15:00,
2013-03-17 15:20:00,38.3,24.0,30.17,ENE,68,2.2,4.9,56,0.00,,,0.00,WUHU216HW,2013-03-17 19:20:00,
2013-03-17 15:25:00,37.3,22.5,30.17,SE,135,0.4,2.9,55,0.00,,,0.00,WUHU216HW,2013-03-17 19:25:00,
2013-03-17 15:30:00,36.7,22.9,30.17,ESE,113,2.0,2.9,57,0.00,,,0.00,WUHU216HW,2013-03-17 19:30:00,
2013-03-17 15:35:00,36.9,23.0,30.17,East,90,0.0,2.2,57,0.00,,,0.00,WUHU216HW,2013-03-17 19:35:00,
2013-03-17 15:40:00,37.3,23.4,30.17,ESE,113,0.0,2.2,57,0.00,,,0.00,WUHU216HW,2013-03-17 19:40:00,
2013-03-17 15:45:00,37.8,24.8,30.17,ESE,113,1.1,1.1,59,0.00,,,0.00,WUHU216HW,2013-03-17 19:45:00,
2013-03-17 15:50:00,37.8,23.1,30.17,ENE,68,1.1,1.1,55,0.00,,,0.00,WUHU216HW,2013-03-17 19:50:00,
2013-03-17 15:55:00,37.8,23.9,30.17,ESE,113,4.0,4.0,57,0.00,,,0.00,WUHU216HW,2013-03-17 19:55:00,
2013-03-17 16:00:00,37.8,23.4,30.17,ESE,113,0.4,4.0,56,0.00,,,0.00,WUHU216HW,2013-03-17 20:00:00,
2013-03-17 16:05:00,37.8,23.1,30.17,ESE,113,2.2,2.2,55,0.00,,,0.00,WUHU216HW,2013-03-17 20:05:00,
2013-03-17 16:10:00,37.4,23.1,30.17,ENE,68,1.3,3.8,56,0.00,,,0.00,WUHU216HW,2013-03-17 20:10:00,
2013-03-17 16:15:00,37.4,23.1,30.17,East,90,1.1,3.8,56,0.00,,,0.00,WUHU216HW,2013-03-17 20:15:00,
2013-03-17 16:20:00,37.3,23.4,30.17,NW,315,0.2,2.2,57,0.00,,,0.00,WUHU216HW,2013-03-17 20:20:00,
2013-03-17 16:25:00,37.6,23.3,30.17,ENE,68,1.1,3.1,56,0.00,,,0.00,WUHU216HW,2013-03-17 20:25:00,
2013-03-17 16:30:00,37.4,23.6,30.17,SSW,203,0.2,3.1,57,0.00,,,0.00,WUHU216HW,2013-03-17 20:30:00,
2013-03-17 16:35:00,37.8,23.4,30.17,ESE,113,2.5,2.5,56,0.00,,,0.00,WUHU216HW,2013-03-17 20:35:00,
2013-03-17 16:40:00,37.6,23.3,30.17,ENE,68,0.4,2.5,56,0.00,,,0.00,WUHU216HW,2013-03-17 20:40:00,
2013-03-17 16:45:00,37.6,22.9,30.17,East,90,0.4,2.0,55,0.00,,,0.00,WUHU216HW,2013-03-17 20:45:00,
2013-03-17 16:50:00,37.4,23.6,30.17,ESE,113,0.9,1.8,57,0.00,,,0.00,WUHU216HW,2013-03-17 20:50:00,
2013-03-17 16:55:00,37.4,23.1,30.17,East,90,1.8,3.4,56,0.00,,,0.00,WUHU216HW,2013-03-17 20:55:00,
2013-03-17 17:00:00,37.4,23.6,30.17,ESE,113,2.2,3.8,57,0.00,,,0.00,WUHU216HW,2013-03-17 21:00:00,
2013-03-17 17:05:00,37.6,23.7,30.17,ESE,113,1.8,3.8,57,0.00,,,0.00,WUHU216HW,2013-03-17 21:05:00,
2013-03-17 17:10:00,37.8,23.9,30.17,ENE,68,0.2,2.2,57,0.00,,,0.00,WUHU216HW,2013-03-17 21:10:00,
2013-03-17 17:15:00,37.6,23.3,30.17,East,90,0.0,1.6,56,0.00,,,0.00,WUHU216HW,2013-03-17 21:15:00,
2013-03-17 17:20:00,37.1,23.2,30.17,ENE,68,2.0,2.0,57,0.00,,,0.00,WUHU216HW,2013-03-17 21:20:00,
2013-03-17 17:25:00,37.3,23.9,30.17,ENE,68,2.5,2.5,58,0.00,,,0.00,WUHU216HW,2013-03-17 21:25:00,
2013-03-17 17:30:00,37.4,23.9,30.17,East,90,0.7,3.8,58,0.00,,,0.00,WUHU216HW,2013-03-17 21:30:00,
2013-03-17 17:35:00,37.3,23.4,30.17,ESE,113,2.9,3.8,57,0.00,,,0.00,WUHU216HW,2013-03-17 21:35:00,
2013-03-17 17:40:00,37.1,23.7,30.17,ESE,113,2.9,3.6,58,0.00,,,0.00,WUHU216HW,2013-03-17 21:40:00,
2013-03-17 17:45:00,36.7,23.8,30.17,ENE,68,1.1,4.9,59,0.00,,,0.00,WUHU216HW,2013-03-17 21:45:00,
2013-03-17 17:50:00,36.4,23.9,30.17,ENE,68,2.0,4.9,60,0.00,,,0.00,WUHU216HW,2013-03-17 21:50:00,
2013-03-17 17:55:00,36.0,23.6,30.17,ESE,113,0.4,2.5,60,0.00,,,0.00,WUHU216HW,2013-03-17 21:55:00,
2013-03-17 18:00:00,36.0,23.6,30.17,SE,135,0.9,1.8,60,0.00,,,0.00,WUHU216HW,2013-03-17 22:00:00,
2013-03-17 18:05:00,36.0,23.6,30.18,North,0,0.2,1.8,60,0.00,,,0.00,WUHU216HW,2013-03-17 22:05:00,
2013-03-17 18:10:00,35.8,23.4,30.18,ENE,68,2.5,2.5,60,0.00,,,0.00,WUHU216HW,2013-03-17 22:10:00,
2013-03-17 18:15:00,35.8,23.8,30.18,ENE,68,2.2,3.8,61,0.00,,,0.00,WUHU216HW,2013-03-17 22:15:00,
2013-03-17 18:20:00,35.6,23.2,30.18,ENE,68,0.4,3.8,60,0.00,,,0.00,WUHU216HW,2013-03-17 22:20:00,
2013-03-17 18:25:00,35.6,23.6,30.18,East,90,3.4,3.6,61,0.00,,,0.00,WUHU216HW,2013-03-17 22:25:00,
2013-03-17 18:30:00,35.5,23.4,30.18,East,90,0.4,3.4,61,0.00,,,0.00,WUHU216HW,2013-03-17 22:30:00,
2013-03-17 18:35:00,35.5,23.8,30.18,ENE,68,0.0,1.3,62,0.00,,,0.00,WUHU216HW,2013-03-17 22:35:00,
2013-03-17 18:40:00,35.3,23.6,30.18,East,90,1.3,1.3,62,0.00,,,0.00,WUHU216HW,2013-03-17 22:40:00,
2013-03-17 18:45:00,35.5,23.8,30.18,ESE,113,2.9,2.9,62,0.00,,,0.00,WUHU216HW,2013-03-17 22:45:00,
2013-03-17 18:50:00,35.1,23.4,30.18,East,90,0.9,2.9,62,0.00,,,0.00,WUHU216HW,2013-03-17 22:50:00,
2013-03-17 18:55:00,34.9,23.2,30.19,NE,45,1.1,2.5,62,0.00,,,0.00,WUHU216HW,2013-03-17 22:55:00,
2013-03-17 19:00:00,34.9,23.2,30.18,East,90,1.1,2.5,62,0.00,,,0.00,WUHU216HW,2013-03-17 23:00:00,
2013-03-17 19:05:00,34.7,23.4,30.18,ENE,68,0.4,2.7,63,0.00,,,0.00,WUHU216HW,2013-03-17 23:05:00,
2013-03-17 19:10:00,34.6,23.2,30.19,ESE,113,1.1,2.7,63,0.00,,,0.00,WUHU216HW,2013-03-17 23:10:00,
2013-03-17 19:15:00,34.6,23.2,30.19,East,90,3.1,3.1,63,0.00,,,0.00,WUHU216HW,2013-03-17 23:15:00,
2013-03-17 19:20:00,34.6,23.2,30.19,ESE,113,2.0,3.1,63,0.00,,,0.00,WUHU216HW,2013-03-17 23:20:00,
2013-03-17 19:25:00,34.6,23.6,30.19,East,90,1.6,2.7,64,0.00,,,0.00,WUHU216HW,2013-03-17 23:25:00,
2013-03-17 19:30:00,34.4,23.8,30.20,East,90,0.2,3.1,65,0.00,,,0.00,WUHU216HW,2013-03-17 23:30:00,
2013-03-17 19:35:00,34.2,23.9,30.20,ENE,68,1.3,3.4,66,0.00,,,0.00,WUHU216HW,2013-03-17 23:35:00,
2013-03-17 19:40:00,34.0,24.1,30.20,East,90,0.7,3.4,67,0.00,,,0.00,WUHU216HW,2013-03-17 23:40:00,
2013-03-17 19:45:00,33.8,24.3,30.20,ENE,68,0.2,2.5,68,0.00,,,0.00,WUHU216HW,2013-03-17 23:45:00,
2013-03-17 19:50:00,33.7,24.5,30.20,East,90,0.2,2.5,69,0.00,,,0.00,WUHU216HW,2013-03-17 23:50:00,
2013-03-17 19:55:00,33.5,24.3,30.20,ESE,113,1.1,2.5,69,0.00,,,0.00,WUHU216HW,2013-03-17 23:55:00,
2013-03-17 20:00:00,33.5,24.7,30.20,ESE,113,1.8,1.8,70,0.00,,,0.00,WUHU216HW,2013-03-18 00:00:00,
2013-03-17 20:05:00,33.5,24.3,30.20,East,90,1.8,1.8,69,0.00,,,0.00,WUHU216HW,2013-03-18 00:05:00,
2013-03-17 20:10:00,33.3,24.6,30.20,East,90,2.0,2.0,70,0.00,,,0.00,WUHU216HW,2013-03-18 00:10:00,
2013-03-17 20:15:00,33.1,24.4,30.20,SE,135,1.6,2.0,70,0.00,,,0.00,WUHU216HW,2013-03-18 00:15:00,
2013-03-17 20:20:00,33.1,24.4,30.20,ENE,68,0.9,1.6,70,0.00,,,0.00,WUHU216HW,2013-03-18 00:20:00,
2013-03-17 20:25:00,33.1,24.4,30.20,SE,135,0.2,1.8,70,0.00,,,0.00,WUHU216HW,2013-03-18 00:25:00,
2013-03-17 20:30:00,32.9,24.2,30.20,ENE,68,0.2,2.5,70,0.00,,,0.00,WUHU216HW,2013-03-18 00:30:00,
2013-03-17 20:35:00,32.9,24.2,30.20,East,90,1.3,2.5,70,0.00,,,0.00,WUHU216HW,2013-03-18 00:35:00,
2013-03-17 20:40:00,32.8,24.0,30.20,East,90,1.3,2.5,70,0.00,,,0.00,WUHU216HW,2013-03-18 00:40:00,
2013-03-17 20:45:00,32.8,24.0,30.20,East,90,1.8,4.7,70,0.00,,,0.00,WUHU216HW,2013-03-18 00:45:00,
2013-03-17 20:50:00,32.8,24.0,30.20,ESE,113,3.8,4.7,70,0.00,,,0.00,WUHU216HW,2013-03-18 00:50:00,
2013-03-17 20:55:00,32.8,24.4,30.20,ESE,113,1.3,3.8,71,0.00,,,0.00,WUHU216HW,2013-03-18 00:55:00,
2013-03-17 21:00:00,32.6,24.2,30.20,ESE,113,1.3,3.6,71,0.00,,,0.00,WUHU216HW,2013-03-18 01:00:00,
2013-03-17 21:05:00,32.6,24.2,30.20,ESE,113,2.5,2.5,71,0.00,,,0.00,WUHU216HW,2013-03-18 01:05:00,
2013-03-17 21:10:00,32.4,24.0,30.20,ESE,113,1.8,4.0,71,0.00,,,0.00,WUHU216HW,2013-03-18 01:10:00,
2013-03-17 21:15:00,32.4,24.0,30.20,East,90,1.8,4.0,71,0.00,,,0.00,WUHU216HW,2013-03-18 01:15:00,
2013-03-17 21:20:00,32.4,24.4,30.20,East,90,1.8,2.2,72,0.00,,,0.00,WUHU216HW,2013-03-18 01:20:00,
2013-03-17 21:25:00,32.2,24.2,30.20,ENE,68,1.1,3.4,72,0.00,,,0.00,WUHU216HW,2013-03-18 01:25:00,
2013-03-17 21:30:00,32.2,24.2,30.20,ESE,113,2.9,3.4,72,0.00,,,0.00,WUHU216HW,2013-03-18 01:30:00,
2013-03-17 21:35:00,32.0,24.0,30.20,East,90,1.3,4.0,72,0.00,,,0.00,WUHU216HW,2013-03-18 01:35:00,
2013-03-17 21:40:00,32.0,24.0,30.20,ESE,113,1.3,4.0,72,0.00,,,0.00,WUHU216HW,2013-03-18 01:40:00,
2013-03-17 21:45:00,31.9,24.2,30.20,East,90,1.1,2.7,73,0.00,,,0.00,WUHU216HW,2013-03-18 01:45:00,
2013-03-17 21:50:00,31.9,23.9,30.20,ENE,68,3.1,3.1,72,0.00,,,0.00,WUHU216HW,2013-03-18 01:50:00,
2013-03-17 21:55:00,31.7,23.7,30.20,ESE,113,1.1,3.1,72,0.00,,,0.00,WUHU216HW,2013-03-18 01:55:00,
2013-03-17 22:00:00,31.7,24.0,30.20,East,90,2.5,2.9,73,0.00,,,0.00,WUHU216HW,2013-03-18 02:00:00,
2013-03-17 22:05:00,31.5,23.9,30.20,East,90,1.3,2.9,73,0.00,,,0.00,WUHU216HW,2013-03-18 02:05:00,
2013-03-17 22:10:00,31.5,23.5,30.20,East,90,2.2,3.4,72,0.00,,,0.00,WUHU216HW,2013-03-18 02:10:00,
2013-03-17 22:15:00,31.3,23.7,30.20,East,90,2.0,3.4,73,0.00,,,0.00,WUHU216HW,2013-03-18 02:15:00,
2013-03-17 22:20:00,31.3,23.7,30.20,ESE,113,4.0,4.0,73,0.00,,,0.00,WUHU216HW,2013-03-18 02:20:00,
2013-03-17 22:25:00,31.3,23.7,30.20,East,90,1.6,4.0,73,0.00,,,0.00,WUHU216HW,2013-03-18 02:25:00,
2013-03-17 22:30:00,31.3,23.7,30.20,East,90,0.7,2.5,73,0.00,,,0.00,WUHU216HW,2013-03-18 02:30:00,
2013-03-17 22:35:00,31.1,23.5,30.20,ESE,113,1.1,3.6,73,0.00,,,0.00,WUHU216HW,2013-03-18 02:35:00,
2013-03-17 22:40:00,31.0,23.3,30.20,East,90,2.7,3.6,73,0.00,,,0.00,WUHU216HW,2013-03-18 02:40:00,
2013-03-17 22:45:00,31.0,23.3,30.20,ESE,113,2.2,3.4,73,0.00,,,0.00,WUHU216HW,2013-03-18 02:45:00,
2013-03-17 22:50:00,31.0,23.3,30.20,ESE,113,2.0,3.4,73,0.00,,,0.00,WUHU216HW,2013-03-18 02:50:00,
2013-03-17 22:55:00,31.0,23.0,30.19,ESE,113,1.1,2.9,72,0.00,,,0.00,WUHU216HW,2013-03-18 02:55:00,
2013-03-17 23:00:00,31.0,23.0,30.19,East,90,2.7,4.0,72,0.00,,,0.00,WUHU216HW,2013-03-18 03:00:00,
2013-03-17 23:05:00,30.8,22.8,30.19,ESE,113,2.2,4.0,72,0.00,,,0.00,WUHU216HW,2013-03-18 03:05:00,
2013-03-17 23:10:00,30.8,22.8,30.19,ESE,113,2.5,3.4,72,0.00,,,0.00,WUHU216HW,2013-03-18 03:10:00,
2013-03-17 23:15:00,30.8,22.8,30.19,ESE,113,2.2,2.9,72,0.00,,,0.00,WUHU216HW,2013-03-18 03:15:00,
2013-03-17 23:20:00,30.8,22.8,30.19,East,90,3.1,3.4,72,0.00,,,0.00,WUHU216HW,2013-03-18 03:20:00,
2013-03-17 23:25:00,30.6,22.6,30.18,ENE,68,1.6,3.4,72,0.00,,,0.00,WUHU216HW,2013-03-18 03:25:00,
2013-03-17 23:30:00,30.6,22.6,30.18,ESE,113,4.7,4.7,72,0.00,,,0.00,WUHU216HW,2013-03-18 03:30:00,
2013-03-17 23:35:00,30.6,22.6,30.18,ESE,113,0.7,4.7,72,0.00,,,0.00,WUHU216HW,2013-03-18 03:35:00,
2013-03-17 23:40:00,30.6,22.3,30.18,East,90,1.1,3.4,71,0.00,,,0.00,WUHU216HW,2013-03-18 03:40:00,
2013-03-17 23:45:00,30.6,22.3,30.18,ESE,113,1.1,3.4,71,0.00,,,0.00,WUHU216HW,2013-03-18 03:45:00,
2013-03-17 23:50:00,30.4,22.2,30.18,North,0,0.4,2.9,71,0.00,,,0.00,WUHU216HW,2013-03-18 03:50:00,
2013-03-17 23:55:00,30.6,22.3,30.17,ESE,113,4.5,4.5,71,0.00,,,0.00,WUHU216HW,2013-03-18 03:55:00,